KSDM/SDM METAR and TAF weather

Enter ICAO airport designator
Station Type Date Time Source
KSDM METAR 2020/03/29 11:53 UTC NOAA

KSDM 291153Z AUTO 12005KT 10SM FEW020 FEW036 08/06 A3007 RMK AO2 SLP181 T00780056 10100 20072 58007 $


Station Type Date Time Source
KSDM Decoded METAR 2020/03/29 11:53 UTC NOAA

San Diego, Brown Field Municipal Airport, CA, United States (KSDM) 32-34-31N 116-59-35W 159M
Mar 29, 2020 - 07:53 AM EDT / 2020.03.29 1153 UTC
Wind: from the ESE (120 degrees) at 6 MPH (5 KT):0
Visibility: 10 mile(s):0
Sky conditions: mostly clear
Temperature: 46.0 F (7.8 C)
Dew Point: 42.1 F (5.6 C)
Relative Humidity: 85%
Pressure (altimeter): 30.07 in. Hg (1018 hPa)
Pressure tendency: 0.02 inches (0.7 hPa) lower than three hours ago
ob: KSDM 291153Z AUTO 12005KT 10SM FEW020 FEW036 08/06 A3007 RMK AO2 SLP181 T00780056 10100 20072 58007
cycle: 12

Station Type Date Time Source
KSDM TAF UTC NOAA

Error!

Example: see airport list